Time;durP1;ratioP1;P1;durP2;ratioP2;P2;SDS_P1;SDS_P2;PMS_P1;PMS_P2;Temp;Humidity;BMP_temperature;BMP_pressure;BME280_temperature;BME280_humidity;BME280_pressure;Samples;Min_cycle;Max_cycle;Signal;HPM_P1;HPM_P2
2022/08/10 00:00:19;;;;;;;0.20;0.00;;;27.00;99.90;;;;;;26172960;22;20191;-69
2022/08/10 00:09:52;;;;;;;0.20;0.00;;;26.80;99.90;;;;;;26172039;22;20769;-70
2022/08/10 00:19:58;;;;;;;0.20;0.00;;;26.70;99.90;;;;;;26173513;22;20207;-68
2022/08/10 00:30:11;;;;;;;0.20;0.00;;;26.50;99.90;;;;;;26172827;22;20167;-70
2022/08/10 00:40:17;;;;;;;0.20;0.00;;;26.50;99.90;;;;;;26171245;22;20226;-69
2022/08/10 00:50:37;;;;;;;0.20;0.00;;;26.50;99.90;;;;;;26171279;22;20176;-69
2022/08/10 01:00:43;;;;;;;0.20;0.00;;;26.50;99.90;;;;;;26172517;22;20187;-68
2022/08/10 01:10:57;;;;;;;0.20;0.00;;;26.40;99.90;;;;;;26171082;22;20251;-68
2022/08/10 01:21:36;;;;;;;0.20;0.00;;;26.30;99.90;;;;;;26168311;22;20170;-70
2022/08/10 01:31:45;;;;;;;0.20;0.10;;;26.00;99.90;;;;;;26154119;22;20278;-69
2022/08/10 01:41:54;;;;;;;0.20;0.00;;;26.00;99.90;;;;;;26179836;22;20167;-70
2022/08/10 01:52:01;;;;;;;0.20;0.00;;;26.10;99.90;;;;;;26177646;22;20191;-69
2022/08/10 02:02:09;;;;;;;0.20;0.10;;;26.00;99.90;;;;;;26176433;22;20207;-69
2022/08/10 02:12:18;;;;;;;0.20;0.05;;;26.20;99.90;;;;;;26175453;22;20218;-69
2022/08/10 02:22:23;;;;;;;0.20;0.00;;;26.20;99.90;;;;;;26176826;22;20213;-71
2022/08/10 02:32:43;;;;;;;0.20;0.00;;;26.40;99.90;;;;;;26176294;22;20207;-69
2022/08/10 02:43:01;;;;;;;0.20;0.00;;;26.30;99.90;;;;;;26175967;22;20223;-68
2022/08/10 02:53:32;;;;;;;0.20;0.00;;;26.50;99.90;;;;;;26175652;22;20239;-69
2022/08/10 03:04:00;;;;;;;0.20;0.10;;;26.50;99.90;;;;;;26173453;22;20195;-70
2022/08/10 03:14:08;;;;;;;0.20;0.00;;;26.30;99.90;;;;;;26172969;22;20184;-70
2022/08/10 03:24:12;;;;;;;0.20;0.00;;;26.10;99.90;;;;;;26174634;22;20155;-70
2022/08/10 03:34:37;;;;;;;0.20;0.00;;;26.30;99.90;;;;;;26173305;22;20213;-69
2022/08/10 03:44:42;;;;;;;0.20;0.10;;;26.10;99.90;;;;;;26173570;22;20238;-70
2022/08/10 03:54:53;;;;;;;0.20;0.00;;;25.50;99.90;;;;;;26172915;22;20179;-70
2022/08/10 04:04:57;;;;;;;0.20;0.05;;;25.70;99.90;;;;;;26170526;22;20233;-70
2022/08/10 04:15:02;;;;;;;0.20;0.10;;;25.70;99.90;;;;;;26171488;22;20270;-69
2022/08/10 04:25:08;;;;;;;0.20;0.10;;;25.60;99.90;;;;;;26170136;22;20182;-70
2022/08/10 04:35:16;;;;;;;0.20;0.00;;;25.60;99.90;;;;;;26172500;22;20195;-69
2022/08/10 04:45:20;;;;;;;0.20;0.00;;;25.00;99.90;;;;;;26169882;22;20187;-71
2022/08/10 04:55:45;;;;;;;0.20;0.00;;;24.80;99.90;;;;;;26169761;22;20255;-70
2022/08/10 05:05:49;;;;;;;0.20;0.00;;;25.10;99.90;;;;;;26169477;22;20282;-69
2022/08/10 05:15:58;;;;;;;0.20;0.00;;;25.30;99.90;;;;;;26179389;22;20194;-69
2022/08/10 05:26:01;;;;;;;0.20;0.10;;;25.20;99.90;;;;;;26177784;22;20230;-69
2022/08/10 05:36:08;;;;;;;0.20;0.10;;;25.40;99.90;;;;;;26177786;22;20187;-69
2022/08/10 05:46:12;;;;;;;0.20;0.00;;;25.40;99.90;;;;;;26174626;22;20166;-70
2022/08/10 05:56:24;;;;;;;0.20;0.00;;;25.50;99.90;;;;;;26173647;22;20183;-71
2022/08/10 06:06:32;;;;;;;0.20;0.00;;;25.80;99.90;;;;;;26175010;22;20199;-70
2022/08/10 06:16:38;;;;;;;0.20;0.00;;;26.10;99.90;;;;;;26174664;22;20199;-69
2022/08/10 06:26:42;;;;;;;0.20;0.00;;;26.40;99.90;;;;;;26175183;22;20152;-68
2022/08/10 06:36:49;;;;;;;0.20;0.00;;;26.70;99.90;;;;;;26173488;22;20187;-70
2022/08/10 06:46:57;;;;;;;0.20;0.00;;;27.20;99.90;;;;;;26173771;22;20219;-69
2022/08/10 06:57:03;;;;;;;0.20;0.00;;;27.50;99.90;;;;;;26173247;22;20233;-70
2022/08/10 07:07:27;;;;;;;0.20;0.00;;;27.80;99.90;;;;;;26170400;22;20203;-70
2022/08/10 07:17:34;;;;;;;0.20;0.00;;;27.90;99.90;;;;;;26169259;22;20187;-68
2022/08/10 07:27:43;;;;;;;0.20;0.00;;;28.30;99.90;;;;;;26169795;22;20158;-69
2022/08/10 07:38:07;;;;;;;0.20;0.00;;;28.60;99.90;;;;;;26169596;22;20190;-69
2022/08/10 07:48:16;;;;;;;0.20;0.00;;;29.20;99.90;;;;;;26170665;22;20250;-69
2022/08/10 07:58:25;;;;;;;0.20;0.00;;;29.80;99.90;;;;;;26165500;22;20175;-70
2022/08/10 08:08:30;;;;;;;0.20;0.00;;;30.30;99.90;;;;;;26167884;22;20244;-70
2022/08/10 08:18:37;;;;;;;0.20;0.00;;;30.40;99.90;;;;;;26169853;22;20183;-71
2022/08/10 08:28:49;;;;;;;0.20;0.00;;;30.40;99.90;;;;;;26165716;22;20167;-70
2022/08/10 08:38:55;;;;;;;0.20;0.00;;;30.90;99.90;;;;;;26167256;22;20195;-67
2022/08/10 08:49:24;;;;;;;0.20;0.00;;;31.00;99.90;;;;;;26165281;22;20186;-70
2022/08/10 09:00:04;;;;;;;0.20;0.00;;;31.40;99.90;;;;;;26166880;22;20248;-68
2022/08/10 09:10:19;;;;;;;0.20;0.00;;;32.00;99.90;;;;;;26165640;22;20207;-68
2022/08/10 09:20:32;;;;;;;0.20;0.00;;;31.00;99.90;;;;;;26166448;22;20210;-69
2022/08/10 09:30:44;;;;;;;0.20;0.00;;;30.80;99.90;;;;;;26163429;22;20179;-69
2022/08/10 09:41:19;;;;;;;0.20;0.00;;;31.10;99.90;;;;;;26165647;22;20195;-70
2022/08/10 09:51:31;;;;;;;0.20;0.00;;;30.80;99.90;;;;;;26166513;22;20191;-71
2022/08/10 10:01:59;;;;;;;0.20;0.00;;;31.40;99.90;;;;;;26172540;22;20525;-69
2022/08/10 10:12:19;;;;;;;0.20;0.00;;;31.20;99.90;;;;;;26172872;22;20195;-69
2022/08/10 10:22:40;;;;;;;0.20;0.00;;;31.20;99.90;;;;;;26174069;22;20171;-69
2022/08/10 10:33:00;;;;;;;0.20;0.00;;;31.00;99.90;;;;;;26170336;22;21166;-69
2022/08/10 10:43:15;;;;;;;0.20;0.00;;;31.40;99.90;;;;;;26171844;22;20187;-69
2022/08/10 10:53:24;;;;;;;0.20;0.00;;;31.60;99.90;;;;;;26170510;22;20229;-70
2022/08/10 11:03:48;;;;;;;0.20;0.00;;;32.40;99.90;;;;;;26165988;22;20199;-69
2022/08/10 11:14:04;;;;;;;0.20;0.00;;;33.20;99.90;;;;;;26170188;22;20195;-68
2022/08/10 11:24:41;;;;;;;0.20;0.00;;;33.40;99.90;;;;;;26167206;22;20236;-69
2022/08/10 11:34:59;;;;;;;0.20;0.00;;;34.10;99.90;;;;;;26169847;22;20246;-69
2022/08/10 11:45:20;;;;;;;0.20;0.00;;;34.50;99.90;;;;;;26168443;22;20168;-69
2022/08/10 11:55:25;;;;;;;0.20;0.00;;;35.10;99.90;;;;;;26169157;22;20271;-70
2022/08/10 12:05:35;;;;;;;0.20;0.00;;;35.20;99.90;;;;;;26169288;22;20263;-72
2022/08/10 12:16:02;;;;;;;0.20;0.00;;;35.90;99.90;;;;;;26169457;22;20249;-69
2022/08/10 12:26:14;;;;;;;0.20;0.00;;;35.60;99.90;;;;;;26169270;22;20155;-69
2022/08/10 12:36:23;;;;;;;0.20;0.00;;;35.60;99.90;;;;;;26167477;22;20245;-70
2022/08/10 12:46:36;;;;;;;0.20;0.00;;;35.70;99.90;;;;;;26169107;22;20189;-71
2022/08/10 12:56:45;;;;;;;0.20;0.00;;;36.60;99.90;;;;;;26169267;22;20194;-70
2022/08/10 13:06:52;;;;;;;0.20;0.00;;;36.40;99.90;;;;;;26167645;22;20195;-70
2022/08/10 13:16:58;;;;;;;0.20;0.00;;;37.60;99.90;;;;;;26167944;22;20202;-72
2022/08/10 13:27:08;;;;;;;0.20;0.00;;;37.10;99.90;;;;;;26171370;22;20167;-69
2022/08/10 13:37:34;;;;;;;0.20;0.00;;;36.80;99.90;;;;;;26176093;22;20194;-69
2022/08/10 13:47:40;;;;;;;0.20;0.00;;;36.20;99.90;;;;;;26174888;22;20179;-69
2022/08/10 13:57:55;;;;;;;0.20;0.00;;;36.40;99.90;;;;;;26168750;22;20266;-71
2022/08/10 14:08:05;;;;;;;0.20;0.00;;;36.70;99.90;;;;;;26171034;22;20282;-69
2022/08/10 14:18:10;;;;;;;0.20;0.00;;;36.60;99.90;;;;;;26167784;22;20211;-68
2022/08/10 14:28:16;;;;;;;0.20;0.00;;;37.00;99.90;;;;;;26168006;22;20237;-70
2022/08/10 14:38:22;;;;;;;0.20;0.00;;;37.50;99.90;;;;;;26167633;22;20280;-71
2022/08/10 20:08:06;;;;;;;0.20;0.00;;;29.50;99.90;;;;;;26017146;22;20200;-68
2022/08/10 20:18:21;;;;;;;0.20;0.03;;;29.50;99.90;;;;;;26012621;22;20214;-69
2022/08/10 20:28:34;;;;;;;0.20;0.00;;;29.40;99.90;;;;;;26035242;22;20162;-68
2022/08/10 20:38:48;;;;;;;0.20;0.05;;;29.30;99.90;;;;;;26010984;22;20195;-67
2022/08/10 20:48:56;;;;;;;0.20;0.00;;;29.30;99.90;;;;;;26010491;22;20175;-69
2022/08/10 20:59:22;;;;;;;0.20;0.03;;;29.10;99.90;;;;;;26036084;22;20256;-69
2022/08/10 21:09:55;;;;;;;0.20;0.00;;;29.20;99.90;;;;;;26055838;22;20287;-67
2022/08/10 21:20:18;;;;;;;0.20;0.00;;;29.20;99.90;;;;;;26162803;22;20247;-67
2022/08/10 23:06:07;;;;;;;0.20;0.00;;;26.50;99.90;;;;;;26172549;22;20200;-67
2022/08/10 23:26:42;;;;;;;0.20;0.00;;;26.00;99.90;;;;;;26174040;22;20163;-69
2022/08/10 23:36:50;;;;;;;0.20;0.10;;;25.80;99.90;;;;;;26170611;22;20198;-69
2022/08/10 23:46:59;;;;;;;0.20;0.00;;;25.70;99.90;;;;;;26170095;22;20156;-68
2022/08/10 23:57:03;;;;;;;0.20;0.00;;;25.50;99.90;;;;;;26172346;22;20179;-69
